Time;durP1;ratioP1;P1;durP2;ratioP2;P2;SDS_P1;SDS_P2;PMS_P1;PMS_P2;Temp;Humidity;BMP_temperature;BMP_pressure;BME280_temperature;BME280_humidity;BME280_pressure;Samples;Min_cycle;Max_cycle;Signal;HPM_P1;HPM_P2
2023/04/26 00:00:47;;;;;;;10.32;2.45;;;;;;;;;;5033623;28;20384;-79
2023/04/26 00:03:19;;;;;;;7.93;2.53;;;;;;;;;;5037469;28;20024;-80
2023/04/26 00:05:51;;;;;;;7.28;2.50;;;;;;;;;;5043439;28;20099;-79
2023/04/26 00:08:17;;;;;;;4.90;2.53;;;;;;;;;;5033499;28;20025;-79
2023/04/26 00:10:48;;;;;;;5.28;2.22;;;;;;;;;;5050944;28;20025;-78
2023/04/26 00:13:20;;;;;;;4.95;2.20;;;;;;;;;;5041123;28;20796;-79
2023/04/26 00:15:46;;;;;;;14.50;2.65;;;;;;;;;;5039713;28;20037;-80
2023/04/26 00:18:17;;;;;;;3.80;2.45;;;;;;;;;;5039959;28;20049;-79
2023/04/26 00:20:50;;;;;;;3.42;2.00;;;;;;;;;;5041382;28;20400;-79
2023/04/26 00:23:16;;;;;;;4.78;2.33;;;;;;;;;;5043923;28;20037;-79
2023/04/26 00:25:47;;;;;;;4.57;2.50;;;;;;;;;;5035988;28;20265;-79
2023/04/26 00:28:20;;;;;;;6.32;2.47;;;;;;;;;;5032342;28;20104;-78
2023/04/26 00:30:47;;;;;;;6.28;2.30;;;;;;;;;;5044931;28;20048;-79
2023/04/26 00:33:19;;;;;;;4.20;2.28;;;;;;;;;;5046610;28;20021;-79
2023/04/26 00:35:51;;;;;;;9.35;2.53;;;;;;;;;;5043839;28;20120;-78
2023/04/26 00:38:17;;;;;;;7.18;2.60;;;;;;;;;;5052091;28;20045;-78
2023/04/26 00:40:48;;;;;;;4.25;2.40;;;;;;;;;;5041261;28;20515;-77
2023/04/26 00:43:20;;;;;;;8.20;2.65;;;;;;;;;;5029973;28;20054;-80
2023/04/26 00:45:46;;;;;;;8.45;3.03;;;;;;;;;;5042799;28;20033;-79
2023/04/26 00:48:17;;;;;;;5.72;2.50;;;;;;;;;;5041913;28;20087;-79
2023/04/26 00:50:50;;;;;;;6.75;2.53;;;;;;;;;;5047602;28;20047;-78
2023/04/26 00:53:16;;;;;;;4.90;2.65;;;;;;;;;;5055924;28;20075;-78
2023/04/26 00:55:50;;;;;;;6.80;3.05;;;;;;;;;;5049212;28;20484;-78
2023/04/26 00:58:21;;;;;;;4.38;2.50;;;;;;;;;;5043141;28;20033;-79
2023/04/26 01:00:49;;;;;;;3.17;2.08;;;;;;;;;;5038237;28;20092;-79
2023/04/26 01:03:20;;;;;;;4.85;2.40;;;;;;;;;;5036801;28;20099;-79
2023/04/26 01:05:53;;;;;;;6.82;2.30;;;;;;;;;;5040693;28;20116;-80
2023/04/26 01:08:19;;;;;;;4.88;2.38;;;;;;;;;;5032367;28;20041;-78
2023/04/26 01:10:52;;;;;;;4.05;2.58;;;;;;;;;;5037511;28;20029;-79
2023/04/26 01:13:25;;;;;;;4.18;2.40;;;;;;;;;;5036310;28;20046;-79
2023/04/26 01:15:50;;;;;;;7.43;3.20;;;;;;;;;;5048442;28;20040;-79
2023/04/26 01:18:22;;;;;;;7.03;2.42;;;;;;;;;;5035964;28;20025;-78
2023/04/26 01:20:55;;;;;;;8.20;2.58;;;;;;;;;;5039877;28;20422;-79
2023/04/26 01:23:21;;;;;;;6.32;2.75;;;;;;;;;;5040446;28;20045;-79
2023/04/26 01:25:55;;;;;;;5.93;2.83;;;;;;;;;;5050298;28;20033;-78
2023/04/26 01:28:26;;;;;;;8.35;2.72;;;;;;;;;;5042095;28;20048;-78
2023/04/26 01:30:52;;;;;;;6.05;2.17;;;;;;;;;;5037673;28;20041;-79
2023/04/26 01:33:23;;;;;;;9.65;2.30;;;;;;;;;;5039878;28;20087;-78
2023/04/26 01:35:56;;;;;;;6.55;3.03;;;;;;;;;;5046060;28;20444;-79
2023/04/26 01:38:21;;;;;;;5.85;3.17;;;;;;;;;;5035047;28;20037;-78
2023/04/26 01:40:53;;;;;;;13.98;3.15;;;;;;;;;;5037466;28;20029;-79
2023/04/26 01:43:32;;;;;;;4.18;2.45;;;;;;;;;;5034293;28;20037;-78
2023/04/26 01:45:58;;;;;;;9.73;2.72;;;;;;;;;;5035693;28;20068;-79
2023/04/26 01:48:23;;;;;;;5.50;2.53;;;;;;;;;;5037027;28;20060;-79
2023/04/26 01:51:01;;;;;;;5.88;2.75;;;;;;;;;;5038808;28;20037;-77
2023/04/26 01:53:27;;;;;;;6.20;3.03;;;;;;;;;;5037398;28;20354;-79
2023/04/26 01:55:54;;;;;;;5.18;2.30;;;;;;;;;;5034861;28;20056;-78
2023/04/26 01:58:32;;;;;;;10.10;2.78;;;;;;;;;;5039157;28;20025;-78
2023/04/26 02:01:05;;;;;;;9.80;2.83;;;;;;;;;;5034432;28;20029;-79
2023/04/26 02:03:43;;;;;;;6.18;2.80;;;;;;;;;;5046064;28;20029;-79
2023/04/26 02:06:09;;;;;;;3.90;2.50;;;;;;;;;;5043880;28;20041;-79
2023/04/26 02:08:34;;;;;;;5.72;2.50;;;;;;;;;;5023846;28;20041;-79
2023/04/26 02:11:13;;;;;;;5.10;2.42;;;;;;;;;;5048060;28;20078;-79
2023/04/26 02:13:39;;;;;;;3.50;2.28;;;;;;;;;;5040087;28;20048;-79
2023/04/26 02:16:05;;;;;;;4.22;2.03;;;;;;;;;;5044225;28;20131;-79
2023/04/26 02:18:43;;;;;;;6.32;2.65;;;;;;;;;;5047061;28;20025;-79
2023/04/26 02:21:10;;;;;;;5.45;2.00;;;;;;;;;;5033405;28;20095;-78
2023/04/26 02:23:35;;;;;;;4.45;2.22;;;;;;;;;;5045749;28;20034;-78
2023/04/26 02:26:14;;;;;;;4.93;2.35;;;;;;;;;;5044998;28;20120;-79
2023/04/26 02:28:40;;;;;;;4.93;2.20;;;;;;;;;;5046395;28;20481;-79
2023/04/26 02:31:06;;;;;;;8.68;2.92;;;;;;;;;;5049335;28;20036;-78
2023/04/26 02:33:45;;;;;;;8.60;2.80;;;;;;;;;;5040021;28;20548;-79
2023/04/26 02:36:10;;;;;;;7.65;2.67;;;;;;;;;;5033374;28;20033;-79
2023/04/26 02:38:35;;;;;;;4.55;2.42;;;;;;;;;;5044434;28;20031;-80
2023/04/26 02:41:14;;;;;;;7.47;2.70;;;;;;;;;;5037215;28;20037;-80
2023/04/26 02:43:40;;;;;;;9.38;2.22;;;;;;;;;;5037266;28;20128;-78
2023/04/26 02:46:06;;;;;;;6.80;2.38;;;;;;;;;;5041266;28;20452;-80
2023/04/26 02:48:45;;;;;;;7.90;2.90;;;;;;;;;;5039299;28;20029;-79
2023/04/26 02:51:11;;;;;;;4.82;1.92;;;;;;;;;;5039198;28;20124;-79
2023/04/26 02:53:36;;;;;;;5.70;2.03;;;;;;;;;;5041689;28;20105;-78
2023/04/26 02:56:15;;;;;;;7.75;2.38;;;;;;;;;;5049547;28;20206;-80
2023/04/26 02:58:40;;;;;;;10.27;2.28;;;;;;;;;;5037913;28;20033;-80
2023/04/26 03:01:05;;;;;;;6.43;2.60;;;;;;;;;;5046568;28;20043;-79
2023/04/26 03:03:44;;;;;;;4.38;2.30;;;;;;;;;;5037183;28;20497;-79
2023/04/26 03:06:10;;;;;;;5.60;2.55;;;;;;;;;;5041905;28;20041;-79
2023/04/26 03:08:35;;;;;;;5.57;2.40;;;;;;;;;;5034436;28;20029;-79
2023/04/26 03:11:13;;;;;;;7.70;2.35;;;;;;;;;;5039333;28;20037;-79
2023/04/26 03:13:39;;;;;;;12.57;2.75;;;;;;;;;;5039933;28;20057;-78
2023/04/26 03:16:05;;;;;;;10.18;2.67;;;;;;;;;;5044975;28;20082;-79
2023/04/26 03:18:43;;;;;;;6.82;2.28;;;;;;;;;;5043686;28;20036;-79
2023/04/26 03:21:09;;;;;;;9.18;2.60;;;;;;;;;;5046117;28;20036;-79
2023/04/26 03:23:34;;;;;;;4.72;2.42;;;;;;;;;;5045451;28;20029;-79
2023/04/26 03:26:13;;;;;;;5.03;2.80;;;;;;;;;;5040317;28;20071;-79
2023/04/26 03:28:38;;;;;;;5.18;2.67;;;;;;;;;;5028564;28;20034;-77
2023/04/26 03:31:04;;;;;;;5.72;2.22;;;;;;;;;;5047167;28;20033;-79
2023/04/26 03:33:42;;;;;;;6.22;2.70;;;;;;;;;;5045228;28;20041;-78
2023/04/26 03:36:08;;;;;;;4.00;2.53;;;;;;;;;;5032972;28;20401;-79
2023/04/26 03:38:33;;;;;;;5.30;2.65;;;;;;;;;;5032786;28;20025;-79
2023/04/26 03:41:11;;;;;;;8.68;2.70;;;;;;;;;;5038129;28;20076;-79
2023/04/26 03:43:37;;;;;;;8.05;2.65;;;;;;;;;;5038589;28;20049;-80
2023/04/26 03:46:03;;;;;;;7.10;2.78;;;;;;;;;;5042954;28;20029;-80
2023/04/26 03:48:41;;;;;;;7.28;2.92;;;;;;;;;;5041216;28;20044;-78
2023/04/26 03:51:07;;;;;;;3.95;2.35;;;;;;;;;;5038475;28;20038;-78
2023/04/26 03:53:32;;;;;;;7.35;2.60;;;;;;;;;;5040475;28;20025;-79
2023/04/26 03:56:10;;;;;;;3.85;2.22;;;;;;;;;;5043511;28;20117;-79
2023/04/26 03:58:36;;;;;;;5.93;2.40;;;;;;;;;;5044718;28;20092;-79
2023/04/26 04:01:02;;;;;;;4.40;2.20;;;;;;;;;;5032600;28;20401;-79
2023/04/26 04:03:40;;;;;;;4.47;2.22;;;;;;;;;;5047427;28;20507;-79
2023/04/26 04:06:06;;;;;;;6.70;2.60;;;;;;;;;;5045518;28;20067;-79
2023/04/26 04:08:32;;;;;;;5.90;2.80;;;;;;;;;;5061419;28;20491;-79
2023/04/26 04:11:11;;;;;;;4.38;2.45;;;;;;;;;;5043217;28;20034;-80
2023/04/26 04:13:37;;;;;;;6.45;2.55;;;;;;;;;;5039128;28;20400;-79
2023/04/26 04:16:03;;;;;;;5.13;2.40;;;;;;;;;;5047522;28;20108;-79
2023/04/26 04:18:41;;;;;;;3.97;2.25;;;;;;;;;;5042328;28;20021;-79
2023/04/26 04:21:07;;;;;;;4.80;2.53;;;;;;;;;;5040788;28;20401;-80
2023/04/26 04:23:32;;;;;;;7.05;2.53;;;;;;;;;;5049655;28;20028;-78
2023/04/26 04:26:11;;;;;;;4.57;2.70;;;;;;;;;;5043207;28;20442;-79
2023/04/26 04:28:38;;;;;;;7.07;2.45;;;;;;;;;;5045519;28;20033;-79
2023/04/26 04:31:17;;;;;;;5.03;2.30;;;;;;;;;;5051152;28;20063;-79
2023/04/26 04:33:43;;;;;;;6.35;2.65;;;;;;;;;;5040377;28;20102;-79
2023/04/26 04:36:08;;;;;;;6.82;2.55;;;;;;;;;;5041781;28;20037;-79
2023/04/26 04:38:47;;;;;;;7.38;2.28;;;;;;;;;;5039907;28;20029;-79
2023/04/26 04:41:13;;;;;;;3.53;2.30;;;;;;;;;;5034899;28;20052;-80
2023/04/26 04:43:38;;;;;;;5.85;2.80;;;;;;;;;;5043348;28;20052;-79
2023/04/26 04:46:17;;;;;;;5.60;2.70;;;;;;;;;;5042906;28;20056;-79
2023/04/26 04:48:43;;;;;;;3.85;2.13;;;;;;;;;;5048602;28;20044;-78
2023/04/26 04:51:08;;;;;;;12.32;2.67;;;;;;;;;;5041207;28;20029;-78
2023/04/26 04:53:46;;;;;;;5.35;2.85;;;;;;;;;;5044954;28;20102;-79
2023/04/26 04:56:12;;;;;;;5.93;2.55;;;;;;;;;;5050755;28;20400;-80
2023/04/26 04:58:37;;;;;;;5.70;2.30;;;;;;;;;;5039926;28;20032;-79
2023/04/26 05:01:15;;;;;;;4.32;2.45;;;;;;;;;;5043623;28;20036;-79
2023/04/26 05:03:41;;;;;;;4.28;2.28;;;;;;;;;;5036331;28;20045;-78
2023/04/26 05:06:06;;;;;;;7.65;2.33;;;;;;;;;;5039766;28;20037;-78
2023/04/26 05:08:45;;;;;;;10.00;2.40;;;;;;;;;;5041787;28;20040;-79
2023/04/26 05:11:11;;;;;;;6.88;2.50;;;;;;;;;;5048877;28;20033;-79
2023/04/26 05:13:36;;;;;;;4.50;2.38;;;;;;;;;;5046464;28;20426;-79
2023/04/26 05:16:15;;;;;;;5.85;2.80;;;;;;;;;;5051555;28;20040;-79
2023/04/26 05:18:40;;;;;;;11.27;2.78;;;;;;;;;;5051363;28;20381;-78
2023/04/26 05:21:06;;;;;;;3.88;2.17;;;;;;;;;;5050526;28;20040;-79
2023/04/26 05:23:44;;;;;;;9.77;2.63;;;;;;;;;;5042617;28;20033;-79
2023/04/26 05:26:15;;;;;;;10.13;2.58;;;;;;;;;;5040644;28;20124;-78
2023/04/26 05:28:53;;;;;;;8.55;2.75;;;;;;;;;;5043834;28;20024;-79
2023/04/26 05:31:20;;;;;;;5.43;2.65;;;;;;;;;;5038529;28;20045;-79
2023/04/26 05:33:45;;;;;;;4.60;2.17;;;;;;;;;;5036568;28;20497;-79
2023/04/26 05:36:25;;;;;;;4.88;2.53;;;;;;;;;;5042369;28;20037;-79
2023/04/26 05:38:50;;;;;;;4.78;2.50;;;;;;;;;;5039832;28;20087;-79
2023/04/26 05:41:16;;;;;;;9.20;2.70;;;;;;;;;;5045916;28;20060;-79
2023/04/26 05:43:55;;;;;;;4.47;2.45;;;;;;;;;;5039601;28;20057;-79
2023/04/26 05:46:21;;;;;;;4.93;2.47;;;;;;;;;;5039945;28;20048;-79
2023/04/26 05:48:46;;;;;;;6.32;2.50;;;;;;;;;;5046494;28;20037;-80
2023/04/26 05:51:26;;;;;;;8.23;2.42;;;;;;;;;;5045220;28;20072;-79
2023/04/26 05:53:52;;;;;;;5.60;2.42;;;;;;;;;;5051402;28;20045;-78
2023/04/26 05:56:17;;;;;;;5.18;2.42;;;;;;;;;;5040328;28;20041;-79
2023/04/26 05:58:56;;;;;;;4.45;2.22;;;;;;;;;;5048221;28;20083;-78
2023/04/26 06:01:22;;;;;;;7.63;2.30;;;;;;;;;;5040229;28;20124;-79
2023/04/26 06:03:47;;;;;;;6.70;2.35;;;;;;;;;;5048071;28;20108;-79
2023/04/26 06:06:27;;;;;;;6.60;2.55;;;;;;;;;;5034625;28;20401;-79
2023/04/26 06:08:52;;;;;;;5.30;3.00;;;;;;;;;;5043374;28;20515;-79
2023/04/26 06:11:18;;;;;;;6.70;3.08;;;;;;;;;;5037936;28;20025;-79
2023/04/26 06:13:56;;;;;;;3.35;2.20;;;;;;;;;;5044582;28;20102;-79
2023/04/26 06:16:22;;;;;;;5.65;2.35;;;;;;;;;;5036982;28;20451;-80
2023/04/26 06:18:47;;;;;;;6.57;2.53;;;;;;;;;;5044601;28;20025;-79
2023/04/26 06:21:26;;;;;;;6.07;2.55;;;;;;;;;;5045764;28;20488;-80
2023/04/26 06:23:51;;;;;;;11.00;2.50;;;;;;;;;;5040219;28;20065;-80
2023/04/26 06:26:16;;;;;;;4.90;2.05;;;;;;;;;;5048259;28;20126;-80
2023/04/26 06:28:55;;;;;;;6.78;2.20;;;;;;;;;;5042921;28;20091;-80
2023/04/26 06:31:21;;;;;;;4.82;2.15;;;;;;;;;;5032312;28;20034;-80
2023/04/26 06:33:47;;;;;;;6.28;2.30;;;;;;;;;;5032644;28;20095;-80
2023/04/26 06:36:26;;;;;;;5.50;2.28;;;;;;;;;;5033354;28;20038;-79
2023/04/26 06:38:52;;;;;;;6.25;2.95;;;;;;;;;;5034290;28;20040;-80
2023/04/26 06:41:17;;;;;;;6.18;2.50;;;;;;;;;;5032632;28;20029;-81
2023/04/26 06:43:56;;;;;;;7.18;2.20;;;;;;;;;;5037951;28;20056;-80
2023/04/26 06:46:22;;;;;;;12.45;2.38;;;;;;;;;;5033979;28;20049;-80
2023/04/26 06:48:47;;;;;;;7.30;2.88;;;;;;;;;;5034979;28;20026;-80
2023/04/26 06:51:25;;;;;;;6.82;2.20;;;;;;;;;;5036939;28;20052;-80
2023/04/26 06:53:51;;;;;;;6.50;2.28;;;;;;;;;;5036233;28;20045;-80
2023/04/26 06:56:17;;;;;;;9.20;2.15;;;;;;;;;;5038464;28;20033;-80
2023/04/26 06:59:10;;;;;;;7.18;1.90;;;;;;;;;;5022116;28;20057;-80
2023/04/26 07:01:37;;;;;;;7.18;2.30;;;;;;;;;;5028527;28;20551;-80
2023/04/26 07:04:10;;;;;;;4.68;1.75;;;;;;;;;;5040797;28;20029;-80
2023/04/26 07:06:43;;;;;;;2.70;1.65;;;;;;;;;;5047381;28;20045;-79
2023/04/26 07:09:09;;;;;;;7.90;2.60;;;;;;;;;;5048743;28;20036;-79
2023/04/26 07:11:41;;;;;;;7.45;2.88;;;;;;;;;;5044962;28;20381;-80
2023/04/26 07:14:12;;;;;;;5.32;2.22;;;;;;;;;;5047937;28;20051;-79
2023/04/26 07:16:38;;;;;;;6.40;1.92;;;;;;;;;;5038781;28;20041;-78
2023/04/26 07:19:10;;;;;;;7.13;2.28;;;;;;;;;;5043781;28;20030;-79
2023/04/26 07:21:42;;;;;;;7.43;1.75;;;;;;;;;;5034088;28;20069;-80
2023/04/26 07:24:08;;;;;;;5.68;2.13;;;;;;;;;;5032030;28;20401;-79
2023/04/26 07:26:40;;;;;;;8.48;1.92;;;;;;;;;;5032511;28;20033;-79
2023/04/26 07:29:13;;;;;;;6.63;2.20;;;;;;;;;;5046232;28;20049;-80
2023/04/26 07:31:38;;;;;;;8.30;2.40;;;;;;;;;;5047537;28;20044;-80
2023/04/26 07:34:10;;;;;;;5.80;2.15;;;;;;;;;;5043484;28;20377;-80
2023/04/26 07:36:41;;;;;;;9.13;2.15;;;;;;;;;;5049608;28;20041;-79
2023/04/26 07:39:09;;;;;;;8.30;1.80;;;;;;;;;;5037281;28;20053;-79
2023/04/26 07:41:41;;;;;;;4.43;1.88;;;;;;;;;;5051019;28;20372;-80
2023/04/26 07:44:12;;;;;;;6.68;2.40;;;;;;;;;;5038283;28;20054;-79
2023/04/26 07:46:38;;;;;;;5.30;1.90;;;;;;;;;;5038659;28;20049;-80
2023/04/26 07:49:10;;;;;;;6.45;2.13;;;;;;;;;;5046035;28;20385;-81
2023/04/26 07:51:41;;;;;;;6.03;1.70;;;;;;;;;;5035956;28;20058;-81
2023/04/26 07:54:07;;;;;;;5.40;1.60;;;;;;;;;;5048510;28;20080;-81
2023/04/26 07:56:39;;;;;;;4.78;1.90;;;;;;;;;;5036755;28;20056;-81
2023/04/26 07:59:10;;;;;;;12.10;2.22;;;;;;;;;;5042226;28;20108;-79
2023/04/26 08:01:36;;;;;;;6.78;1.75;;;;;;;;;;5030109;28;20079;-81
2023/04/26 08:04:08;;;;;;;5.93;2.03;;;;;;;;;;5035837;28;20436;-80
2023/04/26 08:06:43;;;;;;;5.13;1.98;;;;;;;;;;5042812;28;20448;-80
2023/04/26 08:09:16;;;;;;;7.95;2.45;;;;;;;;;;5052967;28;20148;-79
2023/04/26 08:11:47;;;;;;;6.10;1.90;;;;;;;;;;5036267;28;20172;-80
2023/04/26 08:14:13;;;;;;;6.28;2.00;;;;;;;;;;5022785;28;20508;-80
2023/04/26 08:16:45;;;;;;;10.32;2.28;;;;;;;;;;5033671;28;20122;-76
2023/04/26 08:19:16;;;;;;;7.18;2.25;;;;;;;;;;5031715;28;20171;-80
2023/04/26 08:21:42;;;;;;;7.78;2.40;;;;;;;;;;5031532;28;20116;-79
2023/04/26 08:24:14;;;;;;;10.75;2.22;;;;;;;;;;5037385;28;20160;-78
2023/04/26 08:26:45;;;;;;;7.65;2.08;;;;;;;;;;5031986;28;20512;-80
2023/04/26 08:29:11;;;;;;;11.77;2.50;;;;;;;;;;5042780;28;20047;-79
2023/04/26 08:31:43;;;;;;;9.45;1.90;;;;;;;;;;5031733;28;20210;-79
2023/04/26 08:34:14;;;;;;;12.90;2.88;;;;;;;;;;5030395;28;20365;-79
2023/04/26 08:36:44;;;;;;;10.73;3.35;;;;;;;;;;5033819;28;20397;-79
2023/04/26 08:39:30;;;;;;;8.45;2.28;;;;;;;;;;5028908;28;20422;-75
2023/04/26 08:41:59;;;;;;;6.63;1.80;;;;;;;;;;5033387;28;20037;-79
2023/04/26 08:44:40;;;;;;;8.23;2.03;;;;;;;;;;5030513;28;20409;-80
2023/04/26 08:47:15;;;;;;;8.18;1.85;;;;;;;;;;5028774;28;20043;-80
2023/04/26 08:50:01;;;;;;;13.20;2.17;;;;;;;;;;5032070;28;20025;-79
2023/04/26 08:52:27;;;;;;;9.05;1.98;;;;;;;;;;5039027;28;20065;-81
2023/04/26 08:55:06;;;;;;;7.72;2.05;;;;;;;;;;5033420;28;20033;-79
2023/04/26 08:57:32;;;;;;;8.15;1.63;;;;;;;;;;5034506;28;20045;-79
2023/04/26 08:59:57;;;;;;;6.97;1.77;;;;;;;;;;5046123;28;20108;-81
2023/04/26 09:02:36;;;;;;;8.38;1.90;;;;;;;;;;5038511;28;20084;-79
2023/04/26 09:05:03;;;;;;;8.77;2.15;;;;;;;;;;5032273;28;20107;-80
2023/04/26 09:07:47;;;;;;;5.72;1.90;;;;;;;;;;5034440;28;20071;-80
2023/04/26 09:10:21;;;;;;;9.05;2.30;;;;;;;;;;5043195;28;20047;-76
2023/04/26 09:12:59;;;;;;;9.15;2.00;;;;;;;;;;5036473;28;20476;-80
2023/04/26 09:15:26;;;;;;;4.88;2.10;;;;;;;;;;5017379;28;20472;-80
2023/04/26 09:17:52;;;;;;;8.30;2.40;;;;;;;;;;5036778;28;20091;-79
2023/04/26 09:20:35;;;;;;;7.97;2.28;;;;;;;;;;5028781;28;20477;-80
2023/04/26 09:23:06;;;;;;;6.60;2.10;;;;;;;;;;5027486;28;20039;-78
2023/04/26 09:25:45;;;;;;;5.63;2.20;;;;;;;;;;5019465;28;20517;-78
2023/04/26 09:28:21;;;;;;;7.63;2.20;;;;;;;;;;5025148;28;20047;-79
2023/04/26 09:30:59;;;;;;;5.75;2.15;;;;;;;;;;5038612;28;20037;-77
2023/04/26 09:33:25;;;;;;;10.40;2.40;;;;;;;;;;5047673;28;20043;-78
2023/04/26 09:35:50;;;;;;;10.88;2.75;;;;;;;;;;5057205;28;20440;-79
2023/04/26 09:38:28;;;;;;;9.10;2.78;;;;;;;;;;5044063;28;20041;-78
2023/04/26 09:40:58;;;;;;;12.50;2.65;;;;;;;;;;5048865;28;20041;-79
2023/04/26 09:43:42;;;;;;;9.15;2.45;;;;;;;;;;5028158;28;20033;-79
2023/04/26 09:46:08;;;;;;;10.60;2.60;;;;;;;;;;5043704;28;20068;-79
2023/04/26 09:48:40;;;;;;;7.97;2.38;;;;;;;;;;5036646;28;20059;-79
2023/04/26 09:51:14;;;;;;;13.48;2.72;;;;;;;;;;5044522;28;20051;-78
2023/04/26 09:53:49;;;;;;;11.77;3.45;;;;;;;;;;5022381;28;20034;-78
2023/04/26 09:56:22;;;;;;;8.93;2.75;;;;;;;;;;5040938;28;20029;-79
2023/04/26 09:58:57;;;;;;;8.48;2.90;;;;;;;;;;5025258;28;20039;-78
2023/04/26 10:01:30;;;;;;;7.80;3.20;;;;;;;;;;5033120;28;20041;-74
2023/04/26 10:04:03;;;;;;;9.90;2.30;;;;;;;;;;5045649;28;20048;-79
2023/04/26 10:06:28;;;;;;;11.90;2.50;;;;;;;;;;5039911;28;20444;-78
2023/04/26 10:09:00;;;;;;;8.45;2.72;;;;;;;;;;5061055;28;20033;-79
2023/04/26 10:11:33;;;;;;;12.25;2.42;;;;;;;;;;5038417;28;20056;-79
2023/04/26 10:13:58;;;;;;;7.25;2.10;;;;;;;;;;5035204;28;20092;-78
2023/04/26 10:16:30;;;;;;;10.77;2.47;;;;;;;;;;5033253;28;20032;-76
2023/04/26 10:19:03;;;;;;;7.88;2.83;;;;;;;;;;5016125;28;20127;-77
2023/04/26 10:21:38;;;;;;;12.73;2.70;;;;;;;;;;5030755;28;20551;-79
2023/04/26 10:24:11;;;;;;;13.38;3.65;;;;;;;;;;5032291;28;20060;-78
2023/04/26 10:26:52;;;;;;;7.88;2.85;;;;;;;;;;5039255;28;20482;-75
2023/04/26 10:29:26;;;;;;;9.07;3.30;;;;;;;;;;5031438;28;20045;-79
2023/04/26 10:32:08;;;;;;;9.95;2.78;;;;;;;;;;5022818;28;20310;-79
2023/04/26 10:34:40;;;;;;;14.32;2.90;;;;;;;;;;5030066;28;20562;-79
2023/04/26 10:37:21;;;;;;;9.20;2.85;;;;;;;;;;5035507;28;20038;-79
2023/04/26 10:40:23;;;;;;;12.18;3.45;;;;;;;;;;5051557;28;20399;-79
2023/04/26 10:42:55;;;;;;;8.90;2.92;;;;;;;;;;5020349;28;20549;-77
2023/04/26 10:45:29;;;;;;;10.63;3.17;;;;;;;;;;5032110;28;20045;-78
2023/04/26 10:48:22;;;;;;;6.25;2.88;;;;;;;;;;5031560;28;20042;-78
2023/04/26 10:50:59;;;;;;;12.40;4.43;;;;;;;;;;5024609;28;20040;-78
2023/04/26 10:53:31;;;;;;;8.95;2.90;;;;;;;;;;5030913;28;20033;-79
2023/04/26 10:56:03;;;;;;;9.15;2.88;;;;;;;;;;5039663;28;20108;-79
2023/04/26 10:58:41;;;;;;;12.40;2.92;;;;;;;;;;5026400;28;20045;-78
2023/04/26 11:01:17;;;;;;;13.30;4.18;;;;;;;;;;5036964;28;20049;-78
2023/04/26 11:04:15;;;;;;;12.07;3.38;;;;;;;;;;5031641;28;20116;-79
2023/04/26 11:06:52;;;;;;;10.13;3.55;;;;;;;;;;5034990;28;20489;-78
2023/04/26 11:09:56;;;;;;;10.35;3.65;;;;;;;;;;5041709;28;20043;-78
2023/04/26 11:12:29;;;;;;;;;;;;;;;;;;5029874;28;20552;-78
2023/04/26 11:14:55;;;;;;;9.45;2.90;;;;;;;;;;5027618;28;19959;-78
2023/04/26 11:17:27;;;;;;;7.95;3.28;;;;;;;;;;5020699;28;20045;-77
2023/04/26 11:20:07;;;;;;;15.30;3.58;;;;;;;;;;5042629;28;20041;-79
2023/04/26 11:22:40;;;;;;;11.85;3.70;;;;;;;;;;5031542;28;21262;-79
2023/04/26 11:25:12;;;;;;;10.57;3.67;;;;;;;;;;5012233;28;20091;-78
2023/04/26 11:27:38;;;;;;;9.35;3.30;;;;;;;;;;5051194;28;20395;-78
2023/04/26 11:30:11;;;;;;;13.45;3.00;;;;;;;;;;5037221;28;20051;-78
2023/04/26 11:32:45;;;;;;;10.48;3.33;;;;;;;;;;5043476;28;20037;-78
2023/04/26 11:35:10;;;;;;;8.55;3.42;;;;;;;;;;5041641;28;20489;-78
2023/04/26 11:37:41;;;;;;;8.82;3.42;;;;;;;;;;5033813;28;20033;-78
2023/04/26 11:40:15;;;;;;;16.35;3.60;;;;;;;;;;5029766;28;20148;-78
2023/04/26 11:42:49;;;;;;;13.10;4.65;;;;;;;;;;5037147;28;20076;-78
2023/04/26 11:45:22;;;;;;;14.90;4.22;;;;;;;;;;5041668;28;20072;-78
2023/04/26 11:47:47;;;;;;;7.07;3.10;;;;;;;;;;5039652;28;20045;-78
2023/04/26 11:50:21;;;;;;;7.95;3.00;;;;;;;;;;5042382;28;20033;-78
2023/04/26 11:52:59;;;;;;;9.57;2.92;;;;;;;;;;5036694;28;20069;-78
2023/04/26 11:55:36;;;;;;;9.27;3.30;;;;;;;;;;5029352;28;20041;-78
2023/04/26 11:58:10;;;;;;;6.38;3.08;;;;;;;;;;5028356;28;20120;-77
2023/04/26 12:00:42;;;;;;;15.02;5.10;;;;;;;;;;5033899;28;20385;-78
2023/04/26 12:03:15;;;;;;;13.88;3.90;;;;;;;;;;5036809;28;20045;-79
2023/04/26 12:05:40;;;;;;;10.50;3.70;;;;;;;;;;5040237;28;20079;-78
2023/04/26 12:08:17;;;;;;;9.30;3.90;;;;;;;;;;5037079;28;20029;-78
2023/04/26 12:10:49;;;;;;;12.50;3.63;;;;;;;;;;5031772;28;20110;-78
2023/04/26 12:13:15;;;;;;;12.93;3.47;;;;;;;;;;5038437;28;20076;-78
2023/04/26 12:15:47;;;;;;;14.52;3.63;;;;;;;;;;5037836;28;20057;-78
2023/04/26 12:18:19;;;;;;;11.00;3.53;;;;;;;;;;5042372;28;20045;-78
2023/04/26 12:20:47;;;;;;;13.90;3.95;;;;;;;;;;5038397;28;20050;-78
2023/04/26 12:23:20;;;;;;;18.35;5.03;;;;;;;;;;5040482;28;20072;-78
2023/04/26 12:25:55;;;;;;;12.38;3.38;;;;;;;;;;5034838;28;20052;-78
2023/04/26 12:28:28;;;;;;;7.88;3.30;;;;;;;;;;5022828;28;20038;-78
2023/04/26 12:31:03;;;;;;;;;;;;;;;;;;5041622;28;20048;-77
2023/04/26 12:33:28;;;;;;;9.10;3.58;;;;;;;;;;5040977;28;20448;-78
2023/04/26 12:35:59;;;;;;;10.32;3.17;;;;;;;;;;5039112;28;20036;-79
2023/04/26 12:38:32;;;;;;;11.20;4.05;;;;;;;;;;5040599;28;21146;-78
2023/04/26 12:40:58;;;;;;;13.25;3.95;;;;;;;;;;5039841;28;20029;-78
2023/04/26 12:43:29;;;;;;;10.77;3.08;;;;;;;;;;5042690;28;20393;-78
2023/04/26 12:46:02;;;;;;;7.63;3.45;;;;;;;;;;5032904;28;20037;-78
2023/04/26 12:48:27;;;;;;;13.35;3.58;;;;;;;;;;5040577;28;20076;-77
2023/04/26 12:50:59;;;;;;;13.65;3.90;;;;;;;;;;5037063;28;20067;-78
2023/04/26 12:53:32;;;;;;;8.95;3.47;;;;;;;;;;5039287;28;20124;-78
2023/04/26 12:55:58;;;;;;;7.27;3.83;;;;;;;;;;5035674;28;20030;-78
2023/04/26 12:58:30;;;;;;;11.43;3.65;;;;;;;;;;5055694;28;20477;-78
2023/04/26 13:01:02;;;;;;;11.75;3.90;;;;;;;;;;5035910;28;20037;-77
2023/04/26 13:03:27;;;;;;;10.73;3.97;;;;;;;;;;5036295;28;20040;-77
2023/04/26 13:05:59;;;;;;;10.00;3.53;;;;;;;;;;5040112;28;20029;-77
2023/04/26 13:08:32;;;;;;;12.95;3.25;;;;;;;;;;5038578;28;20037;-78
2023/04/26 13:10:58;;;;;;;13.02;3.80;;;;;;;;;;5045014;28;20476;-78
2023/04/26 13:13:29;;;;;;;11.63;3.65;;;;;;;;;;5045450;28;20083;-77
2023/04/26 13:16:02;;;;;;;12.40;3.50;;;;;;;;;;5037059;28;20044;-78
2023/04/26 13:18:27;;;;;;;10.80;3.58;;;;;;;;;;5047900;28;20049;-79
2023/04/26 13:20:59;;;;;;;9.80;3.20;;;;;;;;;;5047291;28;20182;-77
2023/04/26 13:23:32;;;;;;;12.05;3.35;;;;;;;;;;5048043;28;20070;-77
2023/04/26 13:25:57;;;;;;;10.88;3.28;;;;;;;;;;5041437;28;20428;-78
2023/04/26 13:28:28;;;;;;;6.55;2.92;;;;;;;;;;5041542;28;20033;-76
2023/04/26 13:31:01;;;;;;;7.53;3.38;;;;;;;;;;5042135;28;20385;-74
2023/04/26 13:33:26;;;;;;;11.35;3.40;;;;;;;;;;5037548;28;20056;-77
2023/04/26 13:35:58;;;;;;;12.55;3.67;;;;;;;;;;5040558;28;20381;-79
2023/04/26 13:38:31;;;;;;;7.53;3.67;;;;;;;;;;5029929;28;20067;-77
2023/04/26 13:40:56;;;;;;;12.85;3.70;;;;;;;;;;5035282;28;20041;-77
2023/04/26 13:43:28;;;;;;;8.35;3.78;;;;;;;;;;5038080;28;20044;-77
2023/04/26 13:46:01;;;;;;;14.73;3.90;;;;;;;;;;5044353;28;20057;-77
2023/04/26 13:48:26;;;;;;;7.15;2.95;;;;;;;;;;5032595;28;20433;-79
2023/04/26 13:50:58;;;;;;;15.77;3.55;;;;;;;;;;5030907;28;20046;-77
2023/04/26 13:53:31;;;;;;;5.35;2.42;;;;;;;;;;5041030;28;20037;-77
2023/04/26 13:55:56;;;;;;;6.43;3.30;;;;;;;;;;5034659;28;20396;-76
2023/04/26 13:58:28;;;;;;;9.82;3.63;;;;;;;;;;5043342;28;20040;-78
2023/04/26 14:01:02;;;;;;;11.20;3.47;;;;;;;;;;5040061;28;20056;-78
2023/04/26 14:03:27;;;;;;;9.68;3.35;;;;;;;;;;5031623;28;20479;-78
2023/04/26 14:06:01;;;;;;;16.55;3.72;;;;;;;;;;5036458;28;20051;-78
2023/04/26 14:08:33;;;;;;;8.25;2.90;;;;;;;;;;5035019;28;20037;-78
2023/04/26 14:10:58;;;;;;;10.25;4.38;;;;;;;;;;5033881;28;20447;-77
2023/04/26 14:13:29;;;;;;;13.75;4.20;;;;;;;;;;5036121;28;20057;-78
2023/04/26 14:16:02;;;;;;;7.72;3.25;;;;;;;;;;5032061;28;20044;-78
2023/04/26 14:18:27;;;;;;;13.32;4.38;;;;;;;;;;5037312;28;20048;-78
2023/04/26 14:21:00;;;;;;;17.40;3.35;;;;;;;;;;5043086;28;20460;-78
2023/04/26 14:23:32;;;;;;;10.00;3.65;;;;;;;;;;5034892;28;20073;-77
2023/04/26 14:25:57;;;;;;;12.40;3.80;;;;;;;;;;5032251;28;20056;-78
2023/04/26 14:28:29;;;;;;;12.93;4.45;;;;;;;;;;5036480;28;20036;-77
2023/04/26 14:31:02;;;;;;;14.02;3.45;;;;;;;;;;5040076;28;20076;-78
2023/04/26 14:33:27;;;;;;;8.63;3.72;;;;;;;;;;5052029;28;20033;-78
2023/04/26 14:35:59;;;;;;;8.43;3.35;;;;;;;;;;5047428;28;20035;-78
2023/04/26 14:38:32;;;;;;;13.50;3.75;;;;;;;;;;5043090;28;20053;-77
2023/04/26 14:40:57;;;;;;;10.30;3.80;;;;;;;;;;5039187;28;20120;-77
2023/04/26 14:43:28;;;;;;;8.73;3.92;;;;;;;;;;5035104;28;20441;-77
2023/04/26 14:46:02;;;;;;;10.38;4.07;;;;;;;;;;5026958;28;20057;-77
2023/04/26 14:48:27;;;;;;;14.82;3.90;;;;;;;;;;5021280;28;20041;-78
2023/04/26 14:51:05;;;;;;;9.85;4.07;;;;;;;;;;5038716;28;20392;-76
2023/04/26 14:53:38;;;;;;;9.57;3.80;;;;;;;;;;5030043;28;20029;-78
2023/04/26 14:56:06;;;;;;;12.07;3.85;;;;;;;;;;5038654;28;20041;-79
2023/04/26 14:58:37;;;;;;;12.57;4.00;;;;;;;;;;5032699;28;20040;-78
2023/04/26 15:01:10;;;;;;;13.30;4.05;;;;;;;;;;5032549;28;20452;-77
2023/04/26 15:03:35;;;;;;;16.27;4.35;;;;;;;;;;5034535;28;20030;-78